Pagrindinis puslapis
METAR-TAF:

METAR-TAF

Oro uostai :

Teheranas, Iranas

platuma: 35-41N, ilguma: 051-21E, Aukštis: 1204 m

Dabartinis oras

Ataskaita buvo paskelbta 37 minutes, ne 11:30 UTC
Vėjas 8 kt iš Šiaurės Vakarų
Temperatūra 37°C
Drėgmė 5%
Slėgis 1014 hPa
Matomumas 10 km arba daugiau
nėra debesų žemiau 1500 m ir nėra kamuolinių lietaus debesų

METAR: OIII 041130Z 31008KT CAVOK 37/M09 Q1013 A2994

Laikas: 16:37 (12:07 UTC)

Prognozė

Ataskaita buvo paskelbta 1 valandą ir 7 minutes, ne 11:00 UTC
Prognozė galioja nuo 04 metu 12 UTC su 05 metu 18 UTC
Vėjas 8 kt iš Pietvakarių
Matomumas: 8000 m
Laikinai
nuo 04 metu 12 UTC su 04 metu 15 UTC
Vėjas 24 kt iš Vakarų/Pietvakarių
Tapsmas
nuo 05 metu 02 UTC su 05 metu 04 UTC
Vėjas 14 kt iš Šiaurės/Šiaurės Vakarų
Laikinai
nuo 05 metu 10 UTC su 05 metu 16 UTC
Vėjas 28 kt iš Vakarų

TAF: OIII 041100Z 0412/0518 22008KT 8000 NSC TEMPO 0412/0415 24024KT BECMG 0502/0504 34014KT TEMPO 0510/0516 26028KT

Orai ataskaitas ir orų prognozės (METAR, TAF).

turimą stotys yra geltonos ir raudonos taškus žemėlapyje.

Perkelti pele per norėdami pamatyti stoties vardą.

Tada spustelėkite, norėdami matyti oro stebėjimo ir prognozės.

Norėdami pakeisti žemėlapį: spustelėkite ant žalios mygtukų su juodo kryžiaus žemyn,; žalią mygtuką su brūkšneliu, jei norite nutolinti; arba žalių rodyklių gretimoms žemėlapius.


METAR-TAF: